Time;durP1;ratioP1;P1;durP2;ratioP2;P2;SDS_P1;SDS_P2;PMS_P1;PMS_P2;Temp;Humidity;BMP_temperature;BMP_pressure;BME280_temperature;BME280_humidity;BME280_pressure;Samples;Min_cycle;Max_cycle;Signal;HPM_P1;HPM_P2
2022/02/28 00:00:18;;;;;;;;;;;;;;;18.06;26.25;96810.06;10428216;28;1990;-55
2022/02/28 00:05:19;;;;;;;;;;;;;;;18.10;26.08;96798.06;10424743;28;1847;-53
2022/02/28 00:10:19;;;;;;;;;;;;;;;18.08;26.07;96800.94;10439034;28;1813;-56
2022/02/28 00:15:20;;;;;;;;;;;;;;;18.07;26.14;96798.53;10435448;28;1906;-53
2022/02/28 00:20:22;;;;;;;;;;;;;;;18.03;26.25;96798.22;10443543;28;1813;-56
2022/02/28 00:25:23;;;;;;;;;;;;;;;18.02;26.16;96801.06;10443604;28;1793;-53
2022/02/28 00:30:27;;;;;;;;;;;;;;;18.00;26.17;96796.03;10445846;28;1835;-56
2022/02/28 00:35:27;;;;;;;;;;;;;;;17.98;26.01;96800.72;10444965;28;1910;-55
2022/02/28 00:40:28;;;;;;;;;;;;;;;18.02;26.08;96801.06;10426651;28;1835;-55
2022/02/28 00:45:28;;;;;;;;;;;;;;;18.04;25.97;96799.78;10433597;28;1885;-55
2022/02/28 00:50:28;;;;;;;;;;;;;;;18.04;26.05;96799.78;10431052;28;1849;-56
2022/02/28 00:55:29;;;;;;;;;;;;;;;18.07;26.03;96793.28;10435379;28;1909;-54
2022/02/28 01:00:29;;;;;;;;;;;;;;;18.10;25.81;96784.94;10429110;28;1803;-56
2022/02/28 01:05:30;;;;;;;;;;;;;;;18.05;25.99;96782.22;10435458;28;1784;-56
2022/02/28 01:10:30;;;;;;;;;;;;;;;18.12;25.90;96778.44;10452613;28;1801;-53
2022/02/28 01:15:31;;;;;;;;;;;;;;;18.01;26.06;96773.22;10452266;28;2198;-56
2022/02/28 01:20:31;;;;;;;;;;;;;;;18.03;25.91;96773.81;10442606;28;1809;-52
2022/02/28 01:25:32;;;;;;;;;;;;;;;18.01;25.89;96770.63;10456023;28;1805;-56
2022/02/28 01:30:33;;;;;;;;;;;;;;;18.01;25.93;96779.25;10442803;28;1856;-55
2022/02/28 01:35:33;;;;;;;;;;;;;;;18.04;25.87;96764.88;10431179;28;2020;-53
2022/02/28 01:40:34;;;;;;;;;;;;;;;18.09;25.74;96765.81;10436886;28;1842;-53
2022/02/28 01:45:37;;;;;;;;;;;;;;;18.05;25.97;96758.63;10438065;28;1941;-53
2022/02/28 01:50:38;;;;;;;;;;;;;;;18.06;25.83;96762.81;10427344;28;1873;-52
2022/02/28 01:55:38;;;;;;;;;;;;;;;18.08;25.81;96760.75;10444002;28;1930;-55
2022/02/28 02:00:38;;;;;;;;;;;;;;;18.06;25.79;96762.81;10431656;28;1833;-55
2022/02/28 02:05:39;;;;;;;;;;;;;;;17.98;25.93;96761.38;10429792;28;2424;-54
2022/02/28 02:10:40;;;;;;;;;;;;;;;17.98;25.99;96756.13;10424978;28;2146;-54
2022/02/28 02:15:42;;;;;;;;;;;;;;;18.00;25.88;96766.38;10444188;28;1909;-53
2022/02/28 02:20:42;;;;;;;;;;;;;;;17.97;25.93;96769.47;10433335;28;1909;-55
2022/02/28 02:25:43;;;;;;;;;;;;;;;17.93;26.04;96768.34;10436565;28;1963;-56
2022/02/28 02:30:48;;;;;;;;;;;;;;;17.99;25.97;96768.19;10423923;28;1984;-55
2022/02/28 02:35:56;;;;;;;;;;;;;;;17.97;25.85;96780.75;10427947;28;1906;-53
2022/02/28 02:40:56;;;;;;;;;;;;;;;17.95;25.97;96788.06;10438312;28;1951;-56
2022/02/28 02:45:57;;;;;;;;;;;;;;;17.97;25.93;96785.22;10428062;28;2495;-55
2022/02/28 02:50:57;;;;;;;;;;;;;;;17.96;25.96;96778.38;10425638;28;2281;-57
2022/02/28 02:56:00;;;;;;;;;;;;;;;17.94;25.89;96783.06;10439933;28;2174;-56
2022/02/28 03:01:00;;;;;;;;;;;;;;;17.99;25.79;96783.16;10441437;28;2004;-57
2022/02/28 03:06:02;;;;;;;;;;;;;;;17.94;25.87;96786.47;10425239;28;1981;-54
2022/02/28 03:11:02;;;;;;;;;;;;;;;18.01;25.72;96786.34;10421202;28;2242;-56
2022/02/28 03:16:03;;;;;;;;;;;;;;;18.03;25.55;96789.53;10437656;28;2287;-55
2022/02/28 03:21:03;;;;;;;;;;;;;;;18.00;25.67;96788.16;10426299;28;2001;-53
2022/02/28 03:26:04;;;;;;;;;;;;;;;17.97;25.78;96796.50;10434538;28;1922;-55
2022/02/28 03:31:05;;;;;;;;;;;;;;;17.95;25.59;96795.16;10423603;28;2099;-55
2022/02/28 03:36:05;;;;;;;;;;;;;;;17.96;25.73;96800.16;10423907;28;1958;-54
2022/02/28 03:41:05;;;;;;;;;;;;;;;17.89;25.89;96805.53;10418813;28;1977;-53
2022/02/28 03:46:06;;;;;;;;;;;;;;;17.94;25.76;96799.59;10423930;28;1965;-55
2022/02/28 03:51:07;;;;;;;;;;;;;;;17.91;25.77;96807.13;10428208;28;1991;-56
2022/02/28 03:56:07;;;;;;;;;;;;;;;17.89;25.83;96805.53;10434865;28;2075;-51
2022/02/28 04:01:07;;;;;;;;;;;;;;;17.85;25.85;96812.25;10426945;28;1874;-51
2022/02/28 04:06:08;;;;;;;;;;;;;;;17.89;25.70;96795.03;10429489;28;1926;-54
2022/02/28 04:11:09;;;;;;;;;;;;;;;17.88;25.78;96801.31;10433485;28;2008;-56
2022/02/28 04:16:09;;;;;;;;;;;;;;;17.91;25.74;96789.53;10445317;28;1990;-53
2022/02/28 04:21:09;;;;;;;;;;;;;;;17.88;25.86;96793.44;10428388;28;1937;-56
2022/02/28 04:26:12;;;;;;;;;;;;;;;17.95;25.64;96793.31;10446599;28;1957;-52
2022/02/28 04:31:13;;;;;;;;;;;;;;;17.92;25.69;96799.03;10447023;28;1971;-55
2022/02/28 04:36:14;;;;;;;;;;;;;;;17.87;25.70;96797.09;10450912;28;1446;-51
2022/02/28 04:41:14;;;;;;;;;;;;;;;17.87;25.75;96793.66;10429790;28;1850;-55
2022/02/28 04:46:14;;;;;;;;;;;;;;;17.88;25.69;96806.56;10419943;28;1992;-54
2022/02/28 04:51:15;;;;;;;;;;;;;;;17.85;25.85;96796.53;10439840;28;1987;-54
2022/02/28 04:56:15;;;;;;;;;;;;;;;17.85;25.75;96804.41;10428059;28;1894;-54
2022/02/28 05:01:16;;;;;;;;;;;;;;;17.89;25.67;96810.78;10426074;28;1961;-56
2022/02/28 05:06:16;;;;;;;;;;;;;;;17.85;25.71;96811.47;10439063;28;1929;-56
2022/02/28 05:11:16;;;;;;;;;;;;;;;17.86;25.82;96805.19;10426751;28;2170;-54
2022/02/28 05:16:21;;;;;;;;;;;;;;;17.85;25.74;96804.41;10437527;28;1857;-54
2022/02/28 05:21:22;;;;;;;;;;;;;;;17.91;25.55;96812.38;10429390;22;1941;-75
2022/02/28 05:26:23;;;;;;;;;;;;;;;17.85;25.72;96804.41;10385595;28;1784;-70
2022/02/28 05:31:23;;;;;;;;;;;;;;;17.87;25.68;96801.53;10364333;28;2116;-72
2022/02/28 05:36:26;;;;;;;;;;;;;;;17.88;25.71;96801.31;10387579;28;2395;-71
2022/02/28 05:41:26;;;;;;;;;;;;;;;17.86;25.58;96805.19;10392908;28;1993;-72
2022/02/28 05:46:27;;;;;;;;;;;;;;;17.85;25.65;96814.88;10378211;28;1930;-71
2022/02/28 05:51:27;;;;;;;;;;;;;;;17.84;25.63;96812.50;10391566;28;1973;-73
2022/02/28 05:56:29;;;;;;;;;;;;;;;17.84;25.69;96810.69;10376222;28;2369;-75
2022/02/28 06:01:31;;;;;;;;;;;;;;;17.86;25.64;96818.31;10376357;28;1910;-73
2022/02/28 06:06:32;;;;;;;;;;;;;;;17.82;25.58;96823.22;10391453;28;1969;-74
2022/02/28 06:11:33;;;;;;;;;;;;;;;17.83;25.65;96842.38;10406991;28;1985;-72
2022/02/28 06:16:33;;;;;;;;;;;;;;;17.84;25.54;96843.97;10390555;28;1948;-72
2022/02/28 06:21:34;;;;;;;;;;;;;;;17.83;25.53;96853.66;10405363;28;1950;-73
2022/02/28 06:26:38;;;;;;;;;;;;;;;17.82;25.56;96854.69;10388655;28;1936;-74
2022/02/28 06:31:43;;;;;;;;;;;;;;;17.88;25.50;96855.59;10386145;28;2174;-73
2022/02/28 06:36:43;;;;;;;;;;;;;;;17.83;25.53;96858.91;10405286;28;1938;-73
2022/02/28 06:41:44;;;;;;;;;;;;;;;17.79;25.63;96857.78;10392199;28;1881;-72
2022/02/28 06:46:45;;;;;;;;;;;;;;;17.76;25.61;96865.31;10358844;28;1992;-71
2022/02/28 06:51:45;;;;;;;;;;;;;;;17.80;25.59;96866.44;10402970;28;2157;-74
2022/02/28 06:56:46;;;;;;;;;;;;;;;17.79;25.65;96862.22;10372911;28;1887;-71
2022/02/28 07:01:46;;;;;;;;;;;;;;;17.83;25.63;96860.72;10389362;28;1883;-72
2022/02/28 07:06:47;;;;;;;;;;;;;;;17.79;25.62;96863.00;10402203;28;1899;-70
2022/02/28 07:11:47;;;;;;;;;;;;;;;17.79;25.62;96863.00;10372757;28;2000;-71
2022/02/28 07:16:47;;;;;;;;;;;;;;;17.80;25.63;96876.94;10374083;28;1949;-71
2022/02/28 07:21:48;;;;;;;;;;;;;;;17.78;25.75;96869.28;10390086;28;1786;-74
2022/02/28 07:26:49;;;;;;;;;;;;;;;17.79;25.73;96870.88;10388261;28;1891;-73
2022/02/28 07:31:49;;;;;;;;;;;;;;;17.78;25.66;96871.91;10372589;28;1910;-74
2022/02/28 07:36:50;;;;;;;;;;;;;;;17.83;25.69;96879.88;10391363;28;1567;-72
2022/02/28 07:41:52;;;;;;;;;;;;;;;17.77;25.73;96885.25;10367334;28;1903;-72
2022/02/28 07:46:52;;;;;;;;;;;;;;;17.80;25.69;96885.56;10404522;28;1973;-71
2022/02/28 07:51:53;;;;;;;;;;;;;;;17.80;25.67;96895.28;10401202;28;2005;-76
2022/02/28 07:56:54;;;;;;;;;;;;;;;17.79;25.75;96896.31;10384892;28;2010;-73
2022/02/28 08:01:55;;;;;;;;;;;;;;;17.76;25.67;96897.53;10371169;28;2259;-73
2022/02/28 08:06:56;;;;;;;;;;;;;;;17.74;25.80;96891.72;10389480;28;1899;-71
2022/02/28 08:11:56;;;;;;;;;;;;;;;17.79;25.74;96889.25;10376607;28;2040;-72
2022/02/28 08:16:59;;;;;;;;;;;;;;;17.83;25.64;96895.63;10388707;28;2056;-76
2022/02/28 08:22:00;;;;;;;;;;;;;;;17.76;25.81;96894.16;10405341;28;1997;-74
2022/02/28 08:27:00;;;;;;;;;;;;;;;17.76;25.96;96892.31;10387117;28;2042;-73
2022/02/28 08:32:01;;;;;;;;;;;;;;;17.75;25.90;96889.91;10388768;28;1981;-76
2022/02/28 08:37:01;;;;;;;;;;;;;;;17.80;25.75;96890.03;10387700;28;1832;-74
2022/02/28 08:42:02;;;;;;;;;;;;;;;17.77;25.81;96886.06;10373550;28;1929;-70
2022/02/28 08:47:02;;;;;;;;;;;;;;;17.77;25.70;96898.34;10403566;28;2020;-71
2022/02/28 08:52:04;;;;;;;;;;;;;;;17.77;25.78;96901.78;10366409;28;1992;-73
2022/02/28 08:57:05;;;;;;;;;;;;;;;17.76;25.89;96900.16;10358600;28;1859;-72
2022/02/28 09:02:06;;;;;;;;;;;;;;;17.70;25.92;96895.84;10385992;28;2382;-73
2022/02/28 09:07:07;;;;;;;;;;;;;;;17.70;26.02;96900.31;10380676;28;1863;-70
2022/02/28 09:12:08;;;;;;;;;;;;;;;17.74;25.95;96901.44;10392478;28;1914;-72
2022/02/28 09:17:08;;;;;;;;;;;;;;;17.71;26.14;96912.38;10379798;28;1595;-70
2022/02/28 09:22:10;;;;;;;;;;;;;;;17.73;26.12;96912.94;10413200;28;1407;-73
2022/02/28 09:27:11;;;;;;;;;;;;;;;17.71;26.12;96910.56;10409568;28;1586;-73
2022/02/28 09:32:11;;;;;;;;;;;;;;;17.72;26.10;96909.53;10408432;28;1905;-72
2022/02/28 09:37:12;;;;;;;;;;;;;;;17.73;26.12;96905.88;10413176;28;1680;-74
2022/02/28 09:42:12;;;;;;;;;;;;;;;17.74;26.11;96901.44;10413786;28;1842;-76
2022/02/28 09:47:18;;;;;;;;;;;;;;;17.77;26.05;96899.16;10376048;28;1544;-72
2022/02/28 09:52:18;;;;;;;;;;;;;;;17.73;26.11;96913.75;10378278;28;1910;-73
2022/02/28 09:57:21;;;;;;;;;;;;;;;17.73;26.19;96915.56;10398071;28;1785;-75
2022/02/28 10:02:22;;;;;;;;;;;;;;;17.73;26.21;96911.13;10409061;28;1808;-72
2022/02/28 10:07:24;;;;;;;;;;;;;;;17.72;26.20;96909.53;10396937;28;1835;-72
2022/02/28 10:12:31;;;;;;;;;;;;;;;17.71;26.33;96905.31;10394096;28;2308;-73
2022/02/28 10:17:50;;;;;;;;;;;;;;;17.68;26.29;96892.66;10411744;28;1806;-73
2022/02/28 10:22:52;;;;;;;;;;;;;;;17.62;26.44;96898.81;10394945;28;2021;-72
2022/02/28 10:28:10;;;;;;;;;;;;;;;17.69;26.32;96896.88;10411898;28;1858;-72
2022/02/28 10:33:11;;;;;;;;;;;;;;;17.64;26.34;96888.88;10375202;28;1976;-72
2022/02/28 10:38:15;;;;;;;;;;;;;;;17.65;26.50;96887.06;10418518;28;2149;-72
2022/02/28 10:43:23;;;;;;;;;;;;;;;17.61;26.64;96885.94;10378946;28;1902;-71
2022/02/28 10:48:23;;;;;;;;;;;;;;;17.65;26.52;96887.06;10410766;28;1670;-71
2022/02/28 10:53:23;;;;;;;;;;;;;;;17.66;26.51;96884.22;10336290;23;2133;-47
2022/02/28 10:58:25;;;;;;;;;;;;;;;17.59;26.63;96877.50;10273756;28;1894;-50
2022/02/28 11:03:27;;;;;;;;;;;;;;;17.60;26.76;96873.81;10273658;28;1905;-50
2022/02/28 11:08:27;;;;;;;;;;;;;;;17.60;26.73;96877.25;10290802;28;1856;-47
2022/02/28 11:13:29;;;;;;;;;;;;;;;17.64;26.65;96869.75;10271581;28;1906;-50
2022/02/28 11:18:29;;;;;;;;;;;;;;;17.63;26.64;96868.16;10279825;28;1870;-50
2022/02/28 11:23:30;;;;;;;;;;;;;;;17.63;26.59;96865.53;10287773;28;1819;-49
2022/02/28 11:28:30;;;;;;;;;;;;;;;17.60;26.69;96863.34;10451642;23;1938;-56
2022/02/28 11:33:31;;;;;;;;;;;;;;;17.62;26.77;96863.94;10475681;28;1973;-55
2022/02/28 11:38:31;;;;;;;;;;;;;;;17.61;26.83;96864.94;10482967;28;1796;-54
2022/02/28 11:43:32;;;;;;;;;;;;;;;17.61;26.73;96867.56;10477206;28;1911;-57
2022/02/28 11:48:33;;;;;;;;;;;;;;;17.58;26.92;96866.19;10457209;28;1859;-54
2022/02/28 11:53:34;;;;;;;;;;;;;;;17.57;26.90;96864.63;10476091;28;1930;-55
2022/02/28 11:58:35;;;;;;;;;;;;;;;17.56;26.96;96852.53;10459864;28;1874;-54
2022/02/28 12:03:36;;;;;;;;;;;;;;;17.58;26.93;96834.75;10456757;28;1768;-54
2022/02/28 12:08:38;;;;;;;;;;;;;;;17.54;27.05;96838.03;10462054;28;1908;-51
2022/02/28 12:13:38;;;;;;;;;;;;;;;17.56;27.01;96834.16;10466975;28;1961;-55
2022/02/28 12:18:38;;;;;;;;;;;;;;;17.56;26.98;96821.06;10462854;28;2301;-55
2022/02/28 12:23:45;;;;;;;;;;;;;;;17.58;27.05;96820.81;10462804;28;1922;-54
2022/02/28 12:28:49;;;;;;;;;;;;;;;17.54;27.11;96820.50;10466157;28;1835;-53
2022/02/28 12:33:49;;;;;;;;;;;;;;;17.59;27.02;96814.56;10467490;28;1952;-54
2022/02/28 12:38:52;;;;;;;;;;;;;;;17.54;27.05;96810.00;10478590;28;1941;-56
2022/02/28 12:43:53;;;;;;;;;;;;;;;17.55;27.14;96808.19;10471926;28;1949;-53
2022/02/28 12:48:53;;;;;;;;;;;;;;;17.58;27.05;96803.28;10480587;28;1920;-51
2022/02/28 12:53:59;;;;;;;;;;;;;;;17.54;27.18;96807.38;10489046;28;1965;-54
2022/02/28 12:59:00;;;;;;;;;;;;;;;17.52;27.17;96806.81;10486146;28;1894;-56
2022/02/28 13:04:01;;;;;;;;;;;;;;;17.54;27.24;96796.09;10485499;28;1807;-56
2022/02/28 13:09:08;;;;;;;;;;;;;;;17.59;27.11;96796.22;10479756;28;1871;-56
2022/02/28 13:14:09;;;;;;;;;;;;;;;17.66;27.12;96796.91;10470003;28;1906;-55
2022/02/28 13:19:10;;;;;;;;;;;;;;;17.78;27.00;96798.47;10472104;28;1795;-55
2022/02/28 13:24:12;;;;;;;;;;;;;;;17.96;26.85;96789.66;10483890;28;1769;-56
2022/02/28 13:29:13;;;;;;;;;;;;;;;18.23;26.70;96782.06;10481884;28;1847;-55
2022/02/28 13:34:14;;;;;;;;;;;;;;;18.66;26.00;96774.47;10472346;28;1953;-53
2022/02/28 13:39:18;;;;;;;;;;;;;;;18.89;25.48;96784.88;10465293;28;1854;-56
2022/02/28 13:44:19;;;;;;;;;;;;;;;18.54;25.82;96766.69;10480158;28;1890;-54
2022/02/28 13:49:19;;;;;;;;;;;;;;;18.51;26.06;96767.13;10469493;28;1824;-56
2022/02/28 13:54:20;;;;;;;;;;;;;;;19.01;25.48;96774.28;10479771;28;1901;-55
2022/02/28 13:59:24;;;;;;;;;;;;;;;19.31;24.92;96767.66;10482789;28;1504;-52
2022/02/28 14:04:31;;;;;;;;;;;;;;;18.92;25.18;96763.34;10473770;28;1457;-55
2022/02/28 14:09:32;;;;;;;;;;;;;;;18.37;25.99;96750.06;10482153;28;1784;-56
2022/02/28 14:14:33;;;;;;;;;;;;;;;18.07;26.71;96748.69;10484072;28;1913;-55
2022/02/28 14:19:43;;;;;;;;;;;;;;;17.93;26.88;96742.91;10449468;28;1795;-53
2022/02/28 14:24:46;;;;;;;;;;;;;;;17.83;26.97;96733.00;10459602;28;1831;-54
2022/02/28 14:29:46;;;;;;;;;;;;;;;17.79;27.06;96733.69;10473744;28;1769;-53
2022/02/28 14:34:48;;;;;;;;;;;;;;;17.76;27.20;96740.19;10471335;28;1972;-53
2022/02/28 14:39:48;;;;;;;;;;;;;;;17.74;27.18;96739.63;10469758;28;1804;-53
2022/02/28 14:44:51;;;;;;;;;;;;;;;17.73;27.11;96735.44;10463406;28;1749;-54
2022/02/28 14:49:51;;;;;;;;;;;;;;;17.70;27.24;96729.88;10474698;28;1951;-55
2022/02/28 14:54:52;;;;;;;;;;;;;;;17.70;27.21;96735.88;10476677;28;1898;-55
2022/02/28 14:59:52;;;;;;;;;;;;;;;17.72;27.14;96739.06;10462781;28;1840;-55
2022/02/28 15:04:52;;;;;;;;;;;;;;;17.67;27.29;96738.19;10482496;28;1836;-54
2022/02/28 15:09:53;;;;;;;;;;;;;;;17.71;27.17;96742.75;10484851;28;1835;-52
2022/02/28 15:14:53;;;;;;;;;;;;;;;17.70;27.32;96745.59;10461104;28;1974;-55
2022/02/28 15:19:53;;;;;;;;;;;;;;;17.66;27.22;96747.88;10465063;28;1812;-54
2022/02/28 15:24:53;;;;;;;;;;;;;;;17.68;27.14;96745.03;10480949;28;1803;-55
2022/02/28 15:29:54;;;;;;;;;;;;;;;17.65;27.24;96746.28;10467550;28;1855;-55
2022/02/28 15:34:54;;;;;;;;;;;;;;;17.66;27.30;96744.47;10474341;28;1964;-55
2022/02/28 15:39:54;;;;;;;;;;;;;;;17.62;27.24;96749.34;10467197;28;2115;-55
2022/02/28 15:44:55;;;;;;;;;;;;;;;17.66;27.11;96752.34;10461157;28;1851;-53
2022/02/28 15:49:55;;;;;;;;;;;;;;;17.62;27.19;96754.59;10478372;28;1827;-56
2022/02/28 15:54:56;;;;;;;;;;;;;;;17.61;27.21;96747.78;10462675;28;1906;-56
2022/02/28 15:59:56;;;;;;;;;;;;;;;17.64;27.17;96757.00;10466447;28;1862;-55
2022/02/28 16:04:56;;;;;;;;;;;;;;;17.57;27.27;96757.13;10455272;28;1811;-57
2022/02/28 16:09:57;;;;;;;;;;;;;;;17.61;27.02;96752.22;10460153;28;1816;-56
2022/02/28 16:14:57;;;;;;;;;;;;;;;17.59;27.17;96757.69;10463998;28;1914;-57
2022/02/28 16:19:58;;;;;;;;;;;;;;;17.61;26.96;96766.13;10466631;28;1799;-56
2022/02/28 16:24:58;;;;;;;;;;;;;;;17.60;27.05;96759.28;10479938;28;1807;-57
2022/02/28 16:29:58;;;;;;;;;;;;;;;17.62;27.03;96765.09;10466292;28;1833;-55
2022/02/28 16:34:59;;;;;;;;;;;;;;;17.64;26.96;96754.38;10467558;28;1902;-54
2022/02/28 16:39:59;;;;;;;;;;;;;;;17.64;26.96;96755.16;10460419;28;1857;-55
2022/02/28 16:44:59;;;;;;;;;;;;;;;17.64;26.98;96757.78;10464127;28;1784;-55
2022/02/28 16:50:00;;;;;;;;;;;;;;;17.63;26.94;96774.56;10462207;28;1797;-55
2022/02/28 16:55:00;;;;;;;;;;;;;;;17.63;26.94;96785.06;10465621;28;1964;-54
2022/02/28 17:00:01;;;;;;;;;;;;;;;17.62;26.93;96783.44;10464282;28;1910;-54
2022/02/28 17:05:02;;;;;;;;;;;;;;;17.62;26.84;96786.06;10460948;28;1764;-52
2022/02/28 17:10:02;;;;;;;;;;;;;;;17.64;26.71;96791.09;10473201;28;1855;-53
2022/02/28 17:15:04;;;;;;;;;;;;;;;17.59;26.84;96791.78;10471925;28;1965;-56
2022/02/28 17:20:04;;;;;;;;;;;;;;;17.63;26.78;96794.72;10463002;28;1784;-57
2022/02/28 17:25:05;;;;;;;;;;;;;;;17.63;26.80;96805.22;10460617;28;1839;-54
2022/02/28 17:30:05;;;;;;;;;;;;;;;17.61;26.80;96804.66;10432091;23;1780;-71
2022/02/28 17:35:06;;;;;;;;;;;;;;;17.61;26.76;96815.13;10418540;28;1922;-72
2022/02/28 17:40:07;;;;;;;;;;;;;;;17.59;26.80;96810.13;10409162;28;1866;-71
2022/02/28 17:45:08;;;;;;;;;;;;;;;17.56;26.79;96815.81;10425975;28;1826;-71
2022/02/28 17:50:09;;;;;;;;;;;;;;;17.54;26.79;96812.63;10420271;28;1976;-71
2022/02/28 17:55:10;;;;;;;;;;;;;;;17.57;26.70;96806.13;10407012;28;1975;-71
2022/02/28 18:00:12;;;;;;;;;;;;;;;17.58;26.60;96816.38;10423464;28;1915;-71
2022/02/28 18:05:13;;;;;;;;;;;;;;;17.56;26.58;96807.94;10417442;28;1778;-71
2022/02/28 18:10:13;;;;;;;;;;;;;;;17.55;26.67;96805.56;10411308;28;1867;-72
2022/02/28 18:15:14;;;;;;;;;;;;;;;17.56;26.73;96815.81;10418823;28;1910;-71
2022/02/28 18:20:14;;;;;;;;;;;;;;;17.60;26.57;96816.94;10422635;28;1713;-71
2022/02/28 18:25:15;;;;;;;;;;;;;;;17.56;26.63;96815.81;10421734;28;1908;-72
2022/02/28 18:30:15;;;;;;;;;;;;;;;17.59;26.56;96809.31;10404237;28;1848;-72
2022/02/28 18:35:22;;;;;;;;;;;;;;;17.59;26.55;96809.31;10412992;28;1963;-72
2022/02/28 18:40:25;;;;;;;;;;;;;;;17.52;26.73;96813.88;10419138;28;1811;-72
2022/02/28 18:45:25;;;;;;;;;;;;;;;17.52;26.79;96814.69;10434160;28;1849;-71
2022/02/28 18:50:26;;;;;;;;;;;;;;;17.55;26.52;96814.25;10400200;28;1832;-71
2022/02/28 18:55:26;;;;;;;;;;;;;;;17.56;26.60;96817.63;10408704;28;1922;-72
2022/02/28 19:00:27;;;;;;;;;;;;;;;17.58;26.51;96820.81;10438194;28;1852;-71
2022/02/28 19:05:27;;;;;;;;;;;;;;;17.57;26.59;96816.63;10401714;28;1761;-71
2022/02/28 19:10:28;;;;;;;;;;;;;;;17.57;26.54;96827.91;10399401;28;1869;-71
2022/02/28 19:15:28;;;;;;;;;;;;;;;17.57;26.47;96827.91;10415595;28;1901;-71
2022/02/28 19:20:29;;;;;;;;;;;;;;;17.58;26.51;96831.31;10396604;28;1829;-71
2022/02/28 19:25:31;;;;;;;;;;;;;;;17.58;26.33;96829.50;10396778;28;1726;-71
2022/02/28 19:30:31;;;;;;;;;;;;;;;17.57;26.52;96833.16;10413032;28;1777;-71
2022/02/28 19:35:32;;;;;;;;;;;;;;;17.56;26.55;96836.78;10414209;28;1981;-71
2022/02/28 19:40:33;;;;;;;;;;;;;;;17.60;26.46;96837.13;10416253;28;1823;-71
2022/02/28 19:45:33;;;;;;;;;;;;;;;17.59;26.51;96838.16;10416045;28;1777;-73
2022/02/28 19:50:33;;;;;;;;;;;;;;;17.54;26.60;96844.09;10404692;28;1853;-73
2022/02/28 19:55:34;;;;;;;;;;;;;;;17.55;26.42;96845.69;10396483;28;1973;-71
2022/02/28 20:00:34;;;;;;;;;;;;;;;17.56;26.45;96856.97;10413355;28;1748;-72
2022/02/28 20:05:34;;;;;;;;;;;;;;;17.54;26.42;96862.44;10408451;28;1759;-72
2022/02/28 20:10:35;;;;;;;;;;;;;;;17.52;26.50;96866.31;10418729;28;1852;-71
2022/02/28 20:15:35;;;;;;;;;;;;;;;17.51;26.53;96865.53;10404859;28;1912;-71
2022/02/28 20:20:36;;;;;;;;;;;;;;;17.61;26.33;96867.56;10418824;28;1776;-72
2022/02/28 20:25:37;;;;;;;;;;;;;;;17.54;26.40;96870.31;10415978;28;1861;-73
2022/02/28 20:30:37;;;;;;;;;;;;;;;17.52;26.47;96877.59;10423170;28;1838;-72
2022/02/28 20:35:38;;;;;;;;;;;;;;;17.55;26.50;96868.47;10398839;28;1979;-72
2022/02/28 20:40:38;;;;;;;;;;;;;;;17.54;26.46;96867.69;10415099;28;1861;-72
2022/02/28 20:45:38;;;;;;;;;;;;;;;17.57;26.30;96871.69;10397107;28;1901;-72
2022/02/28 20:50:39;;;;;;;;;;;;;;;17.56;26.37;96872.69;10429140;28;1764;-71
2022/02/28 20:55:39;;;;;;;;;;;;;;;17.54;26.34;96869.50;10412920;28;1914;-72
2022/02/28 21:00:39;;;;;;;;;;;;;;;17.59;26.39;96870.44;10411572;28;1953;-71
2022/02/28 21:05:40;;;;;;;;;;;;;;;17.58;26.27;96868.81;10407674;28;1845;-72
2022/02/28 21:10:40;;;;;;;;;;;;;;;17.55;26.31;96871.09;10442246;28;1997;-71
2022/02/28 21:15:41;;;;;;;;;;;;;;;17.54;26.39;96870.31;10428659;28;1906;-71
2022/02/28 21:20:42;;;;;;;;;;;;;;;17.58;26.30;96865.38;10405157;28;1826;-70
2022/02/28 21:25:42;;;;;;;;;;;;;;;17.54;26.30;96870.31;10426992;28;1844;-71
2022/02/28 21:30:43;;;;;;;;;;;;;;;17.53;26.23;96863.47;10423034;28;2200;-71
2022/02/28 21:35:44;;;;;;;;;;;;;;;17.52;26.44;96863.69;10427903;28;1913;-72
2022/02/28 21:40:44;;;;;;;;;;;;;;;17.54;26.37;96856.38;10420706;28;1756;-71
2022/02/28 21:45:44;;;;;;;;;;;;;;;17.56;26.23;96847.28;10433595;28;1842;-71
2022/02/28 21:50:45;;;;;;;;;;;;;;;17.51;26.32;96857.66;10421285;28;1852;-72
2022/02/28 21:55:45;;;;;;;;;;;;;;;17.54;26.17;96854.56;10401778;28;1906;-71
2022/02/28 22:00:46;;;;;;;;;;;;;;;17.55;26.20;96856.19;10412125;28;1806;-71
2022/02/28 22:05:46;;;;;;;;;;;;;;;17.54;26.23;96856.38;10407905;28;1689;-72
2022/02/28 22:10:46;;;;;;;;;;;;;;;17.54;26.23;96857.19;10407248;28;1876;-71
2022/02/28 22:15:47;;;;;;;;;;;;;;;17.55;26.15;96858.81;10420088;28;1910;-71
2022/02/28 22:20:47;;;;;;;;;;;;;;;17.53;26.25;96855.59;10394863;28;1893;-71
2022/02/28 22:25:52;;;;;;;;;;;;;;;17.54;26.17;96861.63;10420135;28;1799;-71
2022/02/28 22:30:52;;;;;;;;;;;;;;;17.56;26.16;96857.75;10425784;28;1749;-72
2022/02/28 22:35:53;;;;;;;;;;;;;;;17.53;26.12;96853.00;10409882;28;1915;-72
2022/02/28 22:40:54;;;;;;;;;;;;;;;17.55;26.15;96842.28;10405117;28;1825;-71
2022/02/28 22:45:54;;;;;;;;;;;;;;;17.53;26.13;96853.00;10404053;28;2397;-72
2022/02/28 22:50:55;;;;;;;;;;;;;;;17.50;26.18;96842.94;10414492;28;1811;-71
2022/02/28 22:55:55;;;;;;;;;;;;;;;17.55;26.13;96850.94;10407432;28;1925;-72
2022/02/28 23:01:10;;;;;;;;;;;;;;;17.54;26.06;96851.94;10426099;22;2142;-48
2022/02/28 23:06:11;;;;;;;;;;;;;;;17.53;25.99;96853.00;10435693;28;1825;-50
2022/02/28 23:21:49;;;;;;;;;;;;;;;17.53;25.99;96847.75;10425797;28;1864;-48
2022/02/28 23:26:50;;;;;;;;;;;;;;;17.53;26.04;96842.50;10438171;28;1907;-50
2022/02/28 23:31:50;;;;;;;;;;;;;;;17.56;25.92;96842.03;10484385;22;3613;-56
2022/02/28 23:36:51;;;;;;;;;;;;;;;17.56;25.94;96834.16;10481887;28;1973;-51
2022/02/28 23:41:51;;;;;;;;;;;;;;;17.56;25.93;96831.53;10466283;28;1798;-51
2022/02/28 23:46:52;;;;;;;;;;;;;;;17.53;25.98;96826.78;10479718;28;1880;-52
2022/02/28 23:51:52;;;;;;;;;;;;;;;17.57;25.95;96827.09;10483106;28;2149;-52
2022/02/28 23:56:52;;;;;;;;;;;;;;;17.52;25.85;96822.53;10480632;28;2007;-53
